Аэропорт: Оренбург-Центральный. Оренбург

ICAO: UWOO

METAR:
2021-10-23 02:00:00
UWOO 230200Z 22005MPS CAVOK 07/01 Q1014 R26/60D NOSIG RMK QFE750/1000
METAR:
2021-10-22 22:48:00
TAF UWOO 222248Z 2300/2324 21007G12MPS 9999 BKN016CB TX14/2310Z TN06/2303Z TEMPO 2300/2315 23008G16MPS TEMPO 2315/2324 19005G12MPS